createdAt,value
2018-12-23T00:00:29.293Z,97.79
2018-12-23T00:02:58.821Z,98.57
2018-12-23T00:05:27.921Z,97.90
2018-12-23T00:07:56.919Z,98.31
2018-12-23T00:10:26.081Z,97.86
2018-12-23T00:12:55.019Z,98.82
2018-12-23T00:15:24.093Z,98.39
2018-12-23T00:17:53.117Z,98.51
2018-12-23T00:20:22.189Z,98.86
2018-12-23T00:22:51.177Z,99.31
2018-12-23T00:25:20.272Z,99.18
2018-12-23T00:27:49.256Z,99.04
2018-12-23T00:30:18.283Z,98.83
2018-12-23T00:32:47.236Z,99.29
2018-12-23T00:35:20.211Z,99.10
2018-12-23T00:37:48.201Z,98.93
2018-12-23T00:40:17.223Z,98.88
2018-12-23T00:42:46.117Z,99.41
2018-12-23T00:45:15.161Z,99.20
2018-12-23T00:47:44.183Z,99.40
2018-12-23T00:50:13.188Z,99.48
2018-12-23T00:52:42.261Z,99.10
2018-12-23T00:55:11.374Z,99.03
2018-12-23T00:57:40.425Z,99.59
2018-12-23T01:00:11.901Z,99.00
2018-12-23T01:02:41.220Z,98.63
2018-12-23T01:05:10.499Z,99.45
2018-12-23T01:07:40.499Z,98.73
2018-12-23T01:10:09.718Z,98.14
2018-12-23T01:12:38.848Z,98.28
2018-12-23T01:15:08.086Z,98.26
2018-12-23T01:17:37.081Z,98.46
2018-12-23T01:20:07.329Z,98.29
2018-12-23T01:22:36.519Z,98.02
2018-12-23T01:25:06.889Z,98.08
2018-12-23T01:27:35.981Z,97.62
2018-12-23T01:30:05.804Z,97.65
2018-12-23T01:32:35.271Z,97.75
2018-12-23T01:35:04.686Z,98.26
2018-12-23T01:37:33.851Z,98.39
2018-12-23T01:40:05.180Z,97.90
2018-12-23T01:42:34.486Z,97.83
2018-12-23T01:45:04.013Z,97.73
2018-12-23T01:47:33.256Z,97.33
2018-12-23T01:50:02.641Z,97.93
2018-12-23T01:52:31.751Z,97.77
2018-12-23T01:55:00.879Z,97.45
2018-12-23T01:57:30.764Z,97.41
2018-12-23T02:00:00.060Z,97.11
2018-12-23T02:02:29.197Z,97.78
2018-12-23T02:04:58.197Z,97.02
2018-12-23T02:07:27.195Z,97.02
2018-12-23T02:09:56.373Z,97.13
2018-12-23T02:12:25.477Z,97.42
2018-12-23T02:14:54.638Z,96.94
2018-12-23T02:17:23.666Z,97.99
2018-12-23T02:19:52.753Z,96.93
2018-12-23T02:22:21.979Z,96.79
2018-12-23T02:24:50.997Z,97.15
2018-12-23T02:27:19.989Z,96.93
2018-12-23T02:29:49.097Z,97.39
2018-12-23T02:32:18.189Z,97.06
2018-12-23T02:34:47.313Z,97.11
2018-12-23T02:37:16.465Z,96.92
2018-12-23T02:39:45.507Z,97.55
2018-12-23T02:42:14.553Z,97.72
2018-12-23T02:44:43.582Z,97.28
2018-12-23T02:47:12.960Z,97.63
2018-12-23T02:49:42.070Z,96.70
2018-12-23T02:52:11.173Z,97.56
2018-12-23T02:54:40.174Z,97.37
2018-12-23T02:57:09.150Z,97.03
2018-12-23T02:59:38.172Z,97.59
2018-12-23T03:02:07.212Z,96.69
2018-12-23T03:04:36.192Z,96.64
2018-12-23T03:07:05.311Z,96.87
2018-12-23T03:09:34.609Z,96.24
2018-12-23T03:12:03.637Z,96.81
2018-12-23T03:14:32.712Z,96.69
2018-12-23T03:17:01.773Z,96.74
2018-12-23T03:19:30.890Z,97.10
2018-12-23T03:21:59.898Z,96.73
2018-12-23T03:24:28.889Z,96.83
2018-12-23T03:26:57.969Z,96.95
2018-12-23T03:29:27.055Z,96.59
2018-12-23T03:31:55.970Z,96.22
2018-12-23T03:34:25.359Z,96.19
2018-12-23T03:36:54.897Z,96.89
2018-12-23T03:39:23.916Z,97.51
2018-12-23T03:41:53.069Z,97.08
2018-12-23T03:44:22.175Z,96.98
2018-12-23T03:46:51.201Z,97.32
2018-12-23T03:49:20.222Z,97.19
2018-12-23T03:51:49.298Z,97.30
2018-12-23T03:54:18.721Z,97.97
2018-12-23T03:56:47.865Z,98.09
2018-12-23T03:59:16.902Z,97.50
2018-12-23T04:01:46.013Z,96.91
2018-12-23T04:04:14.977Z,97.46
2018-12-23T04:06:44.019Z,97.53
2018-12-23T04:09:13.137Z,98.51
2018-12-23T04:11:42.157Z,97.76
2018-12-23T04:14:11.281Z,98.54
2018-12-23T04:16:40.278Z,98.39
2018-12-23T04:19:09.395Z,98.57
2018-12-23T04:21:38.554Z,98.17
2018-12-23T04:24:07.685Z,98.05
2018-12-23T04:26:36.795Z,97.67
2018-12-23T04:29:05.894Z,98.02
2018-12-23T04:31:34.995Z,97.92
2018-12-23T04:34:04.053Z,97.94
2018-12-23T04:36:34.198Z,97.43
2018-12-23T04:39:03.679Z,97.55
2018-12-23T04:41:32.705Z,97.75
2018-12-23T04:44:01.735Z,97.29
2018-12-23T04:46:30.903Z,98.12
2018-12-23T04:48:59.997Z,97.71
2018-12-23T04:51:28.894Z,97.38
2018-12-23T04:53:57.920Z,97.51
2018-12-23T04:56:26.898Z,97.08
2018-12-23T04:58:55.836Z,97.08
2018-12-23T05:01:24.797Z,97.34
2018-12-23T05:03:53.823Z,97.36
2018-12-23T05:06:23.834Z,97.98
2018-12-23T05:08:52.934Z,96.88
2018-12-23T05:11:22.075Z,97.34
2018-12-23T05:13:51.029Z,97.65
2018-12-23T05:16:20.054Z,97.24
2018-12-23T05:18:49.406Z,97.72
2018-12-23T05:21:18.365Z,97.86
2018-12-23T05:23:47.331Z,97.42
2018-12-23T05:26:16.261Z,97.37
2018-12-23T05:28:45.336Z,97.67
2018-12-23T05:31:14.264Z,97.07
2018-12-23T05:33:43.472Z,97.81
2018-12-23T05:36:12.509Z,97.32
2018-12-23T05:38:41.416Z,96.97
2018-12-23T05:41:11.116Z,97.11
2018-12-23T05:43:40.148Z,97.28
2018-12-23T05:46:10.222Z,97.53
2018-12-23T05:48:39.297Z,96.89
2018-12-23T05:51:08.290Z,97.29
2018-12-23T05:53:37.390Z,96.87
2018-12-23T05:56:06.470Z,96.73
2018-12-23T05:58:35.500Z,96.56
2018-12-23T06:01:04.450Z,96.82
2018-12-23T06:03:33.343Z,96.62
2018-12-23T06:06:02.493Z,96.93
2018-12-23T06:08:31.375Z,96.99
2018-12-23T06:11:00.443Z,96.80
2018-12-23T06:13:29.553Z,96.97
2018-12-23T06:15:58.693Z,97.10
2018-12-23T06:18:27.733Z,96.83
2018-12-23T06:20:56.852Z,97.12
2018-12-23T06:23:25.965Z,96.87
2018-12-23T06:25:55.045Z,96.54
2018-12-23T06:28:23.938Z,96.98
2018-12-23T06:30:53.037Z,97.03
2018-12-23T06:33:21.977Z,96.94
2018-12-23T06:35:51.050Z,96.73
2018-12-23T06:38:19.895Z,96.82
2018-12-23T06:40:48.906Z,97.02
2018-12-23T06:43:17.832Z,97.05
2018-12-23T06:45:46.840Z,96.99
2018-12-23T06:48:17.230Z,96.81
2018-12-23T06:50:46.337Z,97.41
2018-12-23T06:53:15.337Z,96.82
2018-12-23T06:55:44.398Z,97.02
2018-12-23T06:58:13.374Z,96.77
2018-12-23T07:00:44.978Z,97.18
2018-12-23T07:03:14.098Z,97.08
2018-12-23T07:05:43.165Z,96.63
2018-12-23T07:08:12.253Z,97.29
2018-12-23T07:10:41.771Z,97.17
2018-12-23T07:13:10.855Z,97.06
2018-12-23T07:15:40.212Z,96.92
2018-12-23T07:18:09.321Z,97.71
2018-12-23T07:20:38.930Z,97.91
2018-12-23T07:23:07.922Z,97.35
2018-12-23T07:25:36.981Z,97.02
2018-12-23T07:28:06.086Z,96.87
2018-12-23T07:30:35.090Z,96.48
2018-12-23T07:33:04.445Z,96.39
2018-12-23T07:35:33.575Z,95.99
2018-12-23T07:38:02.581Z,95.83
2018-12-23T07:40:31.597Z,96.26
2018-12-23T07:43:00.759Z,96.26
2018-12-23T07:45:29.726Z,95.45
2018-12-23T07:47:58.773Z,95.84
2018-12-23T07:50:27.866Z,96.02
2018-12-23T07:52:56.998Z,95.73
2018-12-23T07:55:26.001Z,95.37
2018-12-23T07:57:54.965Z,95.78
2018-12-23T08:00:24.061Z,95.58
2018-12-23T08:02:53.198Z,95.81
2018-12-23T08:05:22.160Z,95.20
2018-12-23T08:07:51.297Z,94.56
2018-12-23T08:10:20.265Z,95.15
2018-12-23T08:12:49.397Z,95.00
2018-12-23T08:15:18.521Z,95.07
2018-12-23T08:17:47.597Z,94.72
2018-12-23T08:20:16.643Z,94.80
2018-12-23T08:22:45.801Z,94.77
2018-12-23T08:25:14.889Z,95.09
2018-12-23T08:27:43.873Z,94.93
2018-12-23T08:30:12.913Z,95.22
2018-12-23T08:32:42.063Z,95.01
2018-12-23T08:35:11.149Z,95.25
2018-12-23T08:37:44.621Z,95.39
2018-12-23T08:40:11.325Z,95.08
2018-12-23T08:42:40.373Z,95.30
2018-12-23T08:45:09.477Z,95.65
2018-12-23T08:47:38.479Z,95.38
2018-12-23T08:50:08.114Z,95.33
2018-12-23T08:52:37.251Z,95.20
2018-12-23T08:55:06.333Z,95.79
2018-12-23T08:57:35.488Z,95.63
2018-12-23T09:00:04.792Z,95.39
2018-12-23T09:02:33.813Z,95.09
2018-12-23T09:05:02.869Z,95.29
2018-12-23T09:07:31.952Z,95.53
2018-12-23T09:10:01.048Z,95.18
2018-12-23T09:12:30.096Z,94.58
2018-12-23T09:14:59.164Z,95.45
2018-12-23T09:17:28.262Z,94.96
2018-12-23T09:19:57.386Z,95.10
2018-12-23T09:22:26.399Z,95.03
2018-12-23T09:24:55.896Z,95.18
2018-12-23T09:27:24.898Z,94.53
2018-12-23T09:29:54.062Z,95.20
2018-12-23T09:32:23.185Z,94.97
2018-12-23T09:34:52.157Z,94.62
2018-12-23T09:37:21.225Z,95.03
2018-12-23T09:39:50.309Z,94.28
2018-12-23T09:42:19.365Z,94.16
2018-12-23T09:44:48.450Z,94.42
2018-12-23T09:47:17.445Z,94.46
2018-12-23T09:49:46.421Z,94.34
2018-12-23T09:52:15.469Z,93.43
2018-12-23T09:54:44.466Z,93.69
2018-12-23T09:57:13.573Z,93.96
2018-12-23T09:59:42.565Z,94.03
2018-12-23T10:02:11.670Z,94.02
2018-12-23T10:04:40.627Z,93.64
2018-12-23T10:07:13.337Z,93.29
2018-12-23T10:09:42.360Z,93.12
2018-12-23T10:12:11.405Z,92.92
2018-12-23T10:14:40.525Z,92.37
2018-12-23T10:17:10.300Z,92.39
2018-12-23T10:19:39.258Z,92.39
2018-12-23T10:22:08.455Z,92.07
2018-12-23T10:24:37.477Z,91.84
2018-12-23T10:27:06.581Z,91.98
2018-12-23T10:29:35.814Z,91.65
2018-12-23T10:32:04.772Z,92.73
2018-12-23T10:34:33.869Z,91.58
2018-12-23T10:37:03.088Z,91.91
2018-12-23T10:39:32.255Z,92.36
2018-12-23T10:42:01.381Z,92.42
2018-12-23T10:44:30.417Z,92.07
2018-12-23T10:46:59.661Z,92.05
2018-12-23T10:49:28.772Z,91.55
2018-12-23T10:51:57.758Z,91.32
2018-12-23T10:54:26.878Z,91.86
2018-12-23T10:56:55.854Z,91.79
2018-12-23T10:59:24.998Z,92.04
2018-12-23T11:01:54.048Z,92.61
2018-12-23T11:04:23.193Z,92.37
2018-12-23T11:06:52.365Z,91.50
2018-12-23T11:09:21.376Z,91.79
2018-12-23T11:11:50.301Z,91.37
2018-12-23T11:14:19.514Z,91.17
2018-12-23T11:16:48.546Z,91.66
2018-12-23T11:19:17.618Z,92.16
2018-12-23T11:21:46.652Z,91.94
2018-12-23T11:24:15.606Z,92.41
2018-12-23T11:26:44.781Z,92.96
2018-12-23T11:29:15.793Z,93.62
2018-12-23T11:31:44.916Z,94.00
2018-12-23T11:34:13.923Z,94.44
2018-12-23T11:36:42.959Z,95.09
2018-12-23T11:39:12.057Z,94.96
2018-12-23T11:41:41.213Z,94.64
2018-12-23T11:44:10.289Z,94.76
2018-12-23T11:46:39.381Z,95.48
2018-12-23T11:49:08.705Z,95.72
2018-12-23T11:51:37.817Z,95.88
2018-12-23T11:54:06.949Z,95.31
2018-12-23T11:56:36.133Z,95.21
2018-12-23T11:59:05.147Z,95.89
2018-12-23T12:01:34.166Z,95.39
2018-12-23T12:04:03.130Z,96.16
2018-12-23T12:06:32.249Z,96.49
2018-12-23T12:09:06.923Z,96.57
2018-12-23T12:11:32.585Z,96.32
2018-12-23T12:14:01.606Z,96.10
2018-12-23T12:16:30.906Z,95.34
2018-12-23T12:18:59.982Z,95.81
2018-12-23T12:21:28.929Z,96.33
2018-12-23T12:23:57.890Z,95.82
2018-12-23T12:26:27.025Z,96.43
2018-12-23T12:28:56.142Z,95.49
2018-12-23T12:31:25.060Z,95.64
2018-12-23T12:33:54.117Z,95.88
2018-12-23T12:36:23.169Z,95.49
2018-12-23T12:38:52.533Z,95.66
2018-12-23T12:41:21.698Z,95.19
2018-12-23T12:43:50.864Z,95.75
2018-12-23T12:46:19.920Z,95.31
2018-12-23T12:48:48.961Z,95.80
2018-12-23T12:51:18.010Z,95.71
2018-12-23T12:53:47.129Z,95.72
2018-12-23T12:56:16.248Z,96.06
2018-12-23T12:58:45.369Z,95.91
2018-12-23T13:01:14.497Z,95.47
2018-12-23T13:03:43.745Z,96.10
2018-12-23T13:06:12.890Z,96.37
2018-12-23T13:08:41.961Z,96.60
2018-12-23T13:11:11.022Z,96.39
2018-12-23T13:13:40.020Z,95.93
2018-12-23T13:16:09.111Z,96.67
2018-12-23T13:18:38.136Z,96.52
2018-12-23T13:21:07.245Z,96.07
2018-12-23T13:23:36.364Z,96.56
2018-12-23T13:26:05.421Z,96.59
2018-12-23T13:28:34.745Z,95.77
2018-12-23T13:31:03.894Z,96.46
2018-12-23T13:33:33.218Z,96.04
2018-12-23T13:36:02.542Z,96.56
2018-12-23T13:38:31.843Z,96.36
2018-12-23T13:41:13.053Z,96.74
2018-12-23T13:43:56.389Z,96.04
2018-12-23T13:46:44.325Z,96.63
2018-12-23T13:49:43.069Z,96.10
2018-12-23T13:52:29.893Z,96.52
2018-12-23T13:55:47.055Z,96.91
2018-12-23T14:01:30.177Z,96.61
2018-12-23T14:04:15.001Z,96.49
2018-12-23T14:07:06.870Z,96.65
2018-12-23T14:09:54.868Z,97.11
2018-12-23T14:12:24.105Z,96.73
2018-12-23T14:14:53.306Z,97.28
2018-12-23T14:17:22.543Z,97.21
2018-12-23T14:19:51.850Z,97.53
2018-12-23T14:22:20.969Z,97.56
2018-12-23T14:24:50.154Z,96.62
2018-12-23T14:27:19.469Z,97.01
2018-12-23T14:29:48.443Z,96.97
2018-12-23T14:32:17.781Z,96.47
2018-12-23T14:34:46.972Z,96.57
2018-12-23T14:37:16.017Z,96.41
2018-12-23T14:40:45.369Z,96.75
2018-12-23T14:43:14.532Z,96.87
2018-12-23T14:45:44.021Z,97.54
2018-12-23T14:48:13.296Z,97.60
2018-12-23T14:50:42.318Z,97.28
2018-12-23T14:53:11.485Z,96.94
2018-12-23T14:55:40.645Z,97.42
2018-12-23T14:58:11.167Z,97.85
2018-12-23T15:00:40.489Z,97.10
2018-12-23T15:03:09.601Z,96.91
2018-12-23T15:05:38.702Z,97.11
2018-12-23T15:08:07.877Z,97.69
2018-12-23T15:10:36.893Z,97.44
2018-12-23T15:13:06.134Z,97.65
2018-12-23T15:15:35.313Z,97.69
2018-12-23T15:18:04.405Z,97.25
2018-12-23T15:20:33.589Z,98.03
2018-12-23T15:23:10.490Z,97.75
2018-12-23T15:25:34.006Z,97.81
2018-12-23T15:28:03.205Z,98.12
2018-12-23T15:30:32.525Z,98.20
2018-12-23T15:33:01.562Z,98.33
2018-12-23T15:35:30.698Z,98.32
2018-12-23T15:37:59.821Z,97.68
2018-12-23T15:40:28.917Z,97.59
2018-12-23T15:42:58.093Z,98.21
2018-12-23T15:45:27.253Z,98.24
2018-12-23T15:47:56.466Z,98.03
2018-12-23T15:50:25.601Z,98.01
2018-12-23T15:52:54.817Z,97.78
2018-12-23T15:55:23.985Z,98.33
2018-12-23T15:57:53.095Z,98.94
2018-12-23T16:00:22.333Z,98.85
2018-12-23T16:02:51.522Z,98.49
2018-12-23T16:05:21.093Z,98.44
2018-12-23T16:07:50.209Z,98.62
2018-12-23T16:10:19.549Z,98.43
2018-12-23T16:12:48.569Z,99.02
2018-12-23T16:15:17.894Z,98.12
2018-12-23T16:17:47.148Z,98.39
2018-12-23T16:20:17.320Z,98.50
2018-12-23T16:22:46.479Z,99.03
2018-12-23T16:25:15.761Z,98.14
2018-12-23T16:27:45.173Z,98.07
2018-12-23T16:30:14.575Z,98.59
2018-12-23T16:32:43.861Z,98.63
2018-12-23T16:35:13.233Z,98.62
2018-12-23T16:37:42.345Z,98.57
2018-12-23T16:40:14.018Z,98.94
2018-12-23T16:42:43.939Z,98.70
2018-12-23T16:45:13.213Z,99.60
2018-12-23T16:47:42.531Z,99.09
2018-12-23T16:50:11.773Z,99.06
2018-12-23T16:52:41.090Z,99.03
2018-12-23T16:55:10.425Z,98.91
2018-12-23T16:57:39.798Z,98.69
2018-12-23T17:00:12.002Z,99.06
2018-12-23T17:02:41.488Z,98.43
2018-12-23T17:05:10.769Z,98.94
2018-12-23T17:07:40.065Z,99.67
2018-12-23T17:10:10.009Z,99.54
2018-12-23T17:12:39.420Z,98.70
2018-12-23T17:15:09.393Z,99.65
2018-12-23T17:17:38.803Z,99.25
2018-12-23T17:20:11.022Z,99.52
2018-12-23T17:22:40.485Z,99.11
2018-12-23T17:25:10.861Z,99.83
2018-12-23T17:27:40.397Z,99.95
2018-12-23T17:30:10.477Z,99.93
2018-12-23T17:32:39.834Z,98.73
2018-12-23T17:35:09.277Z,99.25
2018-12-23T17:37:38.593Z,99.50
2018-12-23T17:40:16.273Z,99.53
2018-12-23T17:42:39.424Z,99.70
2018-12-23T17:45:08.953Z,99.70
2018-12-23T17:47:38.354Z,99.20
2018-12-23T17:50:08.729Z,100.00
2018-12-23T17:52:38.196Z,99.38
2018-12-23T17:55:07.762Z,100.00
2018-12-23T17:57:37.069Z,100.00
2018-12-23T18:00:06.823Z,99.95
2018-12-23T18:02:36.270Z,100.00
2018-12-23T18:05:06.220Z,99.84
2018-12-23T18:07:35.505Z,99.94
2018-12-23T18:10:05.126Z,100.00
2018-12-23T18:12:34.678Z,100.00
2018-12-23T18:15:04.237Z,100.00
2018-12-23T18:17:34.029Z,100.00
2018-12-23T18:20:03.353Z,100.00
2018-12-23T18:22:32.718Z,100.00
2018-12-23T18:25:02.336Z,100.00
2018-12-23T18:27:31.663Z,100.00
2018-12-23T18:30:00.971Z,100.00
2018-12-23T18:32:30.320Z,100.00
2018-12-23T18:34:59.721Z,100.00
2018-12-23T18:37:29.106Z,100.00
2018-12-23T18:39:58.802Z,100.00
2018-12-23T18:42:28.290Z,100.00
2018-12-23T18:44:57.742Z,100.00
2018-12-23T18:47:27.596Z,100.00
2018-12-23T18:49:57.195Z,100.00
2018-12-23T18:52:26.781Z,100.00
2018-12-23T18:54:56.231Z,100.00
2018-12-23T18:57:26.464Z,100.00
2018-12-23T18:59:55.893Z,100.00
2018-12-23T19:02:34.946Z,100.00
2018-12-23T19:05:04.322Z,100.00
2018-12-23T19:07:33.689Z,100.00
2018-12-23T19:10:20.125Z,99.70
2018-12-23T19:13:11.666Z,100.00
2018-12-23T19:15:56.790Z,100.00
2018-12-23T19:18:39.537Z,100.00
2018-12-23T19:21:36.117Z,99.91
2018-12-23T19:24:36.705Z,100.00
2018-12-23T19:27:15.769Z,100.00
2018-12-23T19:29:55.595Z,99.89
2018-12-23T19:33:13.715Z,100.00
2018-12-23T19:35:55.520Z,100.00
2018-12-23T19:39:09.520Z,100.00
2018-12-23T19:43:50.881Z,100.00
2018-12-23T19:46:32.509Z,100.00
2018-12-23T19:49:15.195Z,100.00
2018-12-23T19:52:01.185Z,100.00
2018-12-23T19:54:50.904Z,100.00
2018-12-23T19:57:34.531Z,100.00
2018-12-23T20:01:15.442Z,100.00
2018-12-23T20:04:08.300Z,100.00
2018-12-23T20:06:53.201Z,100.00
2018-12-23T20:09:50.241Z,100.00
2018-12-23T20:14:32.257Z,99.84
2018-12-23T20:17:13.610Z,100.00
2018-12-23T20:19:55.979Z,100.00
2018-12-23T20:24:39.138Z,100.00
2018-12-23T20:27:22.048Z,100.00
2018-12-23T20:30:02.086Z,100.00
2018-12-23T20:34:45.869Z,100.00
2018-12-23T20:37:35.482Z,100.00
2018-12-23T20:40:18.336Z,100.00
2018-12-23T20:43:05.014Z,100.00
2018-12-23T20:45:45.204Z,100.00
2018-12-23T20:48:26.753Z,100.00
2018-12-23T20:51:09.861Z,100.00
2018-12-23T20:53:58.874Z,99.97
2018-12-23T20:56:39.910Z,100.00
2018-12-23T20:59:20.494Z,100.00
2018-12-23T21:03:04.262Z,100.00
2018-12-23T21:07:48.074Z,100.00
2018-12-23T21:12:32.904Z,100.00
2018-12-23T21:15:14.793Z,100.00
2018-12-23T21:17:55.681Z,100.00
2018-12-23T21:21:05.569Z,100.00
2018-12-23T21:23:48.489Z,100.00
2018-12-23T21:26:37.373Z,100.00
2018-12-23T21:32:19.685Z,100.00
2018-12-23T21:36:20.581Z,100.00
2018-12-23T21:39:21.157Z,100.00
2018-12-23T21:46:05.016Z,100.00
2018-12-23T21:49:16.733Z,100.00
2018-12-23T21:54:11.649Z,100.00
2018-12-23T21:59:01.482Z,100.00
2018-12-23T22:01:41.698Z,100.00
2018-12-23T22:04:28.614Z,100.00
2018-12-23T22:09:13.648Z,100.00
2018-12-23T22:13:00.563Z,100.00
2018-12-23T22:15:29.697Z,100.00
2018-12-23T22:17:58.842Z,100.00
2018-12-23T22:20:28.071Z,100.00
2018-12-23T22:22:58.442Z,100.00
2018-12-23T22:25:27.765Z,100.00
2018-12-23T22:27:56.737Z,100.00
2018-12-23T22:30:25.823Z,100.00
2018-12-23T22:32:54.760Z,100.00
2018-12-23T22:35:23.905Z,100.00
2018-12-23T22:37:52.874Z,100.00
2018-12-23T22:40:21.964Z,100.00
2018-12-23T22:42:50.997Z,100.00
2018-12-23T22:45:20.052Z,100.00
2018-12-23T22:47:49.156Z,100.00
2018-12-23T22:50:18.140Z,100.00
2018-12-23T22:52:47.317Z,100.00
2018-12-23T22:55:16.350Z,100.00
2018-12-23T22:57:45.408Z,100.00
2018-12-23T23:00:17.537Z,100.00
2018-12-23T23:02:46.609Z,100.00
2018-12-23T23:05:15.955Z,100.00
2018-12-23T23:07:45.309Z,100.00
2018-12-23T23:10:14.481Z,100.00
2018-12-23T23:12:43.457Z,100.00
2018-12-23T23:15:12.573Z,100.00
2018-12-23T23:17:41.766Z,100.00
2018-12-23T23:20:10.860Z,100.00
2018-12-23T23:22:39.867Z,100.00
2018-12-23T23:25:08.917Z,100.00
2018-12-23T23:27:37.861Z,100.00
2018-12-23T23:30:07.169Z,100.00
2018-12-23T23:32:36.233Z,100.00
2018-12-23T23:35:05.502Z,100.00
2018-12-23T23:37:34.520Z,100.00
2018-12-23T23:40:03.624Z,100.00
2018-12-23T23:42:32.608Z,100.00
2018-12-23T23:45:01.806Z,100.00
2018-12-23T23:47:30.877Z,100.00
2018-12-23T23:49:59.904Z,100.00
2018-12-23T23:52:28.870Z,100.00
2018-12-23T23:54:57.989Z,100.00
2018-12-23T23:57:27.055Z,100.00
2018-12-23T23:59:56.118Z,100.00
